Time;durP1;ratioP1;P1;durP2;ratioP2;P2;SDS_P1;SDS_P2;PMS_P1;PMS_P2;Temp;Humidity;BMP_temperature;BMP_pressure;BME280_temperature;BME280_humidity;BME280_pressure;Samples;Min_cycle;Max_cycle;Signal;HPM_P1;HPM_P2
2022/10/24 00:03:41;;;;;;;;;;;15.90;99.90;;;14.11;95.50;100409.16;10372405;28;19933;-85
2022/10/24 00:08:44;;;;;;;;;;;15.90;99.90;;;14.11;95.70;100403.81;10393608;28;19941;-85
2022/10/24 00:13:48;;;;;;;;;;;16.00;99.90;;;14.12;95.75;100400.97;10349525;28;19942;-84
2022/10/24 00:18:50;;;;;;;;;;;16.00;99.90;;;14.13;95.68;100405.28;10369119;28;20396;-84
2022/10/24 00:23:53;;;;;;;;;;;16.00;99.90;;;14.15;95.69;100413.97;10385064;28;19933;-85
2022/10/24 00:28:56;;;;;;;;;;;16.00;99.90;;;14.14;95.71;100406.09;10398599;28;19933;-85
2022/10/24 00:33:59;;;;;;;;;;;16.00;99.90;;;14.11;95.87;100401.16;10376282;28;19991;-85
2022/10/24 00:39:02;;;;;;;;;;;16.00;99.90;;;14.11;96.14;100396.63;10392064;28;19965;-85
2022/10/24 00:44:24;;;;;;;;;;;16.00;99.90;;;14.09;95.99;100404.00;10364534;28;19933;-84
2022/10/24 00:49:45;;;;;;;;;;;16.00;99.90;;;14.09;96.27;100387.13;10372187;28;19933;-85
2022/10/24 00:54:50;;;;;;;;;;;15.90;99.90;;;14.06;96.33;100393.69;10376760;28;20385;-85
2022/10/24 00:59:57;;;;;;;;;;;15.90;99.90;;;14.06;96.53;100391.00;10373436;28;20464;-85
2022/10/24 01:05:01;;;;;;;;;;;15.90;99.90;;;14.03;96.52;100386.03;10358773;28;19941;-84
2022/10/24 01:10:26;;;;;;;;;;;15.90;99.90;;;14.01;96.82;100374.69;10394622;28;19940;-84
2022/10/24 01:15:39;;;;;;;;;;;15.90;99.90;;;14.00;96.87;100373.06;10373840;28;19941;-84
2022/10/24 01:20:54;;;;;;;;;;;15.90;99.90;;;13.97;97.02;100376.06;10384494;28;19934;-85
2022/10/24 01:26:21;;;;;;;;;;;15.80;99.90;;;13.97;97.27;100396.63;10372877;28;19933;-86
2022/10/24 01:31:29;;;;;;;;;;;15.80;99.90;;;13.97;97.37;100389.44;10403344;28;19934;-85
2022/10/24 01:36:42;;;;;;;;;;;15.80;99.90;;;13.95;97.47;100380.78;10367510;28;19961;-84
2022/10/24 01:41:46;;;;;;;;;;;15.80;99.90;;;13.92;97.42;100378.50;10401377;28;20012;-85
2022/10/24 01:47:16;;;;;;;;;;;15.80;99.90;;;13.90;97.86;100367.97;10346453;28;19965;-85
2022/10/24 01:52:20;;;;;;;;;;;15.80;99.90;;;13.89;97.66;100373.50;10355159;28;20317;-85
2022/10/24 01:57:27;;;;;;;;;;;15.80;99.90;;;13.84;97.69;100367.91;10370243;28;19933;-84
2022/10/24 02:02:36;;;;;;;;;;;15.70;99.90;;;13.85;98.05;100380.22;10384120;28;19934;-84
2022/10/24 02:07:41;;;;;;;;;;;15.70;99.90;;;13.84;98.00;100376.72;10386120;28;19937;-84
2022/10/24 02:12:48;;;;;;;;;;;15.70;99.90;;;13.85;98.00;100377.56;10377933;28;19941;-85
2022/10/24 02:17:52;;;;;;;;;;;15.70;99.90;;;13.75;97.72;100351.16;10362722;28;20407;-85
2022/10/24 02:23:04;;;;;;;;;;;15.60;99.90;;;13.65;98.21;100356.75;10350952;28;20027;-85
2022/10/24 02:28:15;;;;;;;;;;;15.60;99.90;;;13.58;98.68;100355.84;10369395;28;20020;-85
2022/10/24 02:33:18;;;;;;;;;;;15.50;99.90;;;13.54;98.67;100357.22;10355880;28;19934;-85
2022/10/24 02:38:31;;;;;;;;;;;15.50;99.90;;;13.46;99.20;100337.78;10374762;28;19934;-85
2022/10/24 02:43:35;;;;;;;;;;;15.40;99.90;;;13.37;99.30;100340.56;10365247;28;20437;-84
2022/10/24 02:48:41;;;;;;;;;;;15.30;99.90;;;13.31;99.54;100345.75;10350140;28;20024;-84
2022/10/24 02:53:45;;;;;;;;;;;15.20;99.90;;;13.27;100.00;100342.66;10364985;28;19941;-85
2022/10/24 02:58:48;;;;;;;;;;;15.20;99.90;;;13.19;99.97;100323.16;10418918;28;19933;-85
2022/10/24 03:03:51;;;;;;;;;;;15.10;99.90;;;13.10;100.00;100336.59;10391194;28;19940;-84
2022/10/24 03:08:54;;;;;;;;;;;15.10;99.90;;;13.09;100.00;100334.94;10388029;28;19933;-85
2022/10/24 03:13:57;;;;;;;;;;;15.00;99.90;;;13.08;100.00;100338.63;10355589;28;19984;-85
2022/10/24 03:18:59;;;;;;;;;;;15.00;99.90;;;13.04;100.00;100349.84;10338833;28;19934;-85
2022/10/24 03:24:02;;;;;;;;;;;15.00;99.90;;;13.02;100.00;100351.84;10378167;28;19993;-84
2022/10/24 03:29:05;;;;;;;;;;;14.90;99.90;;;12.97;100.00;100335.56;10366641;28;19934;-85
2022/10/24 03:34:08;;;;;;;;;;;14.90;99.90;;;12.90;100.00;100316.78;10368809;28;19938;-85
2022/10/24 03:39:11;;;;;;;;;;;14.80;99.90;;;12.84;100.00;100322.84;10348430;28;19941;-85
2022/10/24 03:44:14;;;;;;;;;;;14.80;99.90;;;12.76;100.00;100336.22;10362756;28;19933;-85
2022/10/24 03:49:16;;;;;;;;;;;14.70;99.90;;;12.74;100.00;100331.06;10364726;28;19940;-84
2022/10/24 03:54:19;;;;;;;;;;;14.60;99.90;;;12.71;100.00;100336.75;10362725;28;20467;-86
2022/10/24 03:59:22;;;;;;;;;;;14.70;99.90;;;12.70;100.00;100328.94;10363824;28;19934;-85
2022/10/24 04:04:25;;;;;;;;;;;14.60;99.90;;;12.64;100.00;100327.81;10339837;28;19937;-84
2022/10/24 04:09:27;;;;;;;;;;;14.60;99.90;;;12.63;100.00;100347.47;10401661;28;19933;-86
2022/10/24 04:14:30;;;;;;;;;;;14.60;99.90;;;12.64;100.00;100350.97;10378366;28;19969;-85
2022/10/24 04:19:33;;;;;;;;;;;14.50;99.90;;;12.63;100.00;100358.16;10410755;28;20130;-85
2022/10/24 04:24:38;;;;;;;;;;;14.60;99.90;;;12.57;100.00;100358.84;10346781;28;19933;-85
2022/10/24 04:29:41;;;;;;;;;;;14.50;99.90;;;12.58;100.00;100358.66;10376007;28;19965;-85
2022/10/24 04:34:44;;;;;;;;;;;14.50;99.90;;;12.55;100.00;100345.72;10351344;28;19974;-84
2022/10/24 04:39:46;;;;;;;;;;;14.50;99.90;;;12.49;100.00;100337.59;10389194;28;19934;-84
2022/10/24 04:44:49;;;;;;;;;;;14.50;99.90;;;12.41;100.00;100327.78;10361574;28;20290;-84
2022/10/24 04:49:52;;;;;;;;;;;14.40;99.90;;;12.39;100.00;100335.16;10368906;28;19934;-83
2022/10/24 04:54:55;;;;;;;;;;;14.30;99.90;;;12.40;100.00;100330.66;10368772;28;19934;-83
2022/10/24 04:59:58;;;;;;;;;;;14.30;99.90;;;12.42;100.00;100329.47;10401278;28;20424;-83
2022/10/24 05:05:01;;;;;;;;;;;14.30;99.90;;;12.43;100.00;100325.81;10388938;28;19933;-83
2022/10/24 05:10:04;;;;;;;;;;;14.30;99.90;;;12.44;100.00;100335.44;10364446;28;20413;-84
2022/10/24 05:15:08;;;;;;;;;;;14.40;99.90;;;12.42;100.00;100333.97;10385323;28;19980;-84
2022/10/24 05:20:11;;;;;;;;;;;14.40;99.90;;;12.44;100.00;100347.94;10352940;28;20317;-84
2022/10/24 05:25:13;;;;;;;;;;;14.30;99.90;;;12.45;100.00;100371.75;10366619;28;19985;-84
2022/10/24 05:30:16;;;;;;;;;;;14.40;99.90;;;12.47;100.00;100374.22;10381978;28;19961;-87
2022/10/24 05:35:19;;;;;;;;;;;14.30;99.90;;;12.48;100.00;100374.09;10403157;28;19941;-87
2022/10/24 05:40:22;;;;;;;;;;;14.40;99.90;;;12.48;100.00;100376.75;10355648;28;19941;-87
2022/10/24 05:45:25;;;;;;;;;;;14.40;99.90;;;12.45;100.00;100384.25;10377033;28;19965;-86
2022/10/24 05:50:28;;;;;;;;;;;14.30;99.90;;;12.47;100.00;100395.56;10371187;28;19996;-86
2022/10/24 05:55:32;;;;;;;;;;;14.30;99.90;;;12.39;100.00;100388.44;10391037;28;19941;-85
2022/10/24 06:00:35;;;;;;;;;;;14.30;99.90;;;12.38;100.00;100391.28;10403660;28;19934;-84
2022/10/24 06:05:37;;;;;;;;;;;14.30;99.90;;;12.36;100.00;100404.81;10384139;28;19941;-84
2022/10/24 06:10:41;;;;;;;;;;;14.30;99.90;;;12.34;100.00;100412.13;10366347;28;19937;-84
2022/10/24 06:15:44;;;;;;;;;;;14.30;99.90;;;12.32;100.00;100414.13;10381212;28;20408;-85
2022/10/24 06:20:47;;;;;;;;;;;14.20;99.90;;;12.35;100.00;100434.25;10383444;28;20017;-84
2022/10/24 06:25:58;;;;;;;;;;;14.20;99.90;;;12.30;100.00;100416.97;10364828;28;19961;-84
2022/10/24 06:31:02;;;;;;;;;;;14.20;99.90;;;12.28;100.00;100413.63;10359072;28;20037;-83
2022/10/24 06:36:08;;;;;;;;;;;14.20;99.90;;;12.28;100.00;100415.47;10352278;28;19933;-83
2022/10/24 06:41:13;;;;;;;;;;;14.20;99.90;;;12.25;100.00;100418.50;10396942;28;19934;-88
2022/10/24 06:46:16;;;;;;;;;;;14.10;99.90;;;12.21;100.00;100409.19;10396198;28;19934;-83
2022/10/24 06:51:19;;;;;;;;;;;14.10;99.90;;;12.11;100.00;100395.22;10400635;28;20369;-82
2022/10/24 06:56:22;;;;;;;;;;;14.00;99.90;;;11.98;100.00;100375.31;10377965;28;19934;-84
2022/10/24 07:01:26;;;;;;;;;;;13.90;99.90;;;11.91;100.00;100373.50;10398103;28;20100;-83
2022/10/24 07:06:29;;;;;;;;;;;13.80;99.90;;;11.87;100.00;100385.50;10388013;28;19933;-83
2022/10/24 07:11:33;;;;;;;;;;;13.80;99.90;;;11.89;100.00;100407.47;10388163;28;19940;-83
2022/10/24 07:16:36;;;;;;;;;;;13.80;99.90;;;11.93;100.00;100422.94;10370708;28;20313;-83
2022/10/24 07:21:39;;;;;;;;;;;13.80;99.90;;;11.96;100.00;100443.06;10364102;28;19941;-83
2022/10/24 07:26:41;;;;;;;;;;;13.80;99.90;;;11.98;100.00;100479.19;10362036;28;20415;-83
2022/10/24 07:31:45;;;;;;;;;;;13.80;99.90;;;12.03;100.00;100457.38;10371945;28;19940;-83
2022/10/24 07:36:48;;;;;;;;;;;13.90;99.90;;;12.05;100.00;100466.88;10361482;28;19933;-83
2022/10/24 07:41:51;;;;;;;;;;;14.00;99.90;;;12.06;100.00;100435.72;10384078;28;20222;-84
2022/10/24 07:46:54;;;;;;;;;;;14.00;99.90;;;12.03;100.00;100399.59;10380888;28;19933;-84
2022/10/24 07:51:56;;;;;;;;;;;14.00;99.90;;;12.02;100.00;100413.09;10404809;28;19940;-83
2022/10/24 07:56:59;;;;;;;;;;;14.00;99.90;;;12.03;100.00;100412.91;10356582;28;19934;-83
2022/10/24 08:02:02;;;;;;;;;;;13.90;99.90;;;12.05;100.00;100423.38;10362806;28;20438;-84
2022/10/24 08:07:11;;;;;;;;;;;14.00;99.90;;;12.08;100.00;100423.06;10378594;28;19934;-84
2022/10/24 08:12:15;;;;;;;;;;;14.00;99.90;;;12.15;100.00;100401.88;10399703;28;19933;-84
2022/10/24 08:17:18;;;;;;;;;;;14.00;99.90;;;12.16;100.00;100399.03;10384203;28;19934;-83
2022/10/24 08:22:21;;;;;;;;;;;14.10;99.90;;;12.23;100.00;100407.16;10381197;28;20287;-84
2022/10/24 08:27:24;;;;;;;;;;;14.20;99.90;;;12.31;100.00;100405.31;10386845;28;19933;-83
2022/10/24 08:32:27;;;;;;;;;;;14.20;99.90;;;12.36;100.00;100388.81;10361826;28;19961;-83
2022/10/24 08:37:29;;;;;;;;;;;14.30;99.90;;;12.47;100.00;100384.91;10392787;28;20368;-83
2022/10/24 08:42:32;;;;;;;;;;;14.40;99.90;;;12.57;100.00;100391.66;10406213;28;19933;-83
2022/10/24 08:47:35;;;;;;;;;;;14.50;99.90;;;12.62;100.00;100377.81;10394338;28;19934;-83
2022/10/24 08:52:41;;;;;;;;;;;14.50;99.90;;;12.64;100.00;100377.63;10385903;28;19941;-83
2022/10/24 08:57:53;;;;;;;;;;;14.60;99.90;;;12.68;100.00;100377.09;10385661;28;19933;-83
2022/10/24 09:03:19;;;;;;;;;;;14.60;99.90;;;12.71;100.00;100370.56;10392426;28;19972;-83
2022/10/24 09:08:59;;;;;;;;;;;14.60;99.90;;;12.74;100.00;100384.41;10399014;28;20018;-84
2022/10/24 09:14:10;;;;;;;;;;;14.70;99.90;;;12.84;100.00;100386.84;10376595;28;19977;-84
2022/10/24 09:19:16;;;;;;;;;;;14.80;99.90;;;12.84;100.00;100386.84;10346156;28;19934;-84
2022/10/24 09:24:37;;;;;;;;;;;14.80;99.90;;;12.93;100.00;100387.59;10359942;28;19941;-83
2022/10/24 09:29:40;;;;;;;;;;;14.90;99.90;;;13.02;100.00;100395.38;10345024;28;19934;-83
2022/10/24 09:34:43;;;;;;;;;;;14.90;99.90;;;13.06;100.00;100407.31;10373022;28;19933;-83
2022/10/24 09:39:46;;;;;;;;;;;14.90;99.90;;;13.11;100.00;100410.28;10391757;28;19933;-83
2022/10/24 09:44:49;;;;;;;;;;;14.90;99.90;;;13.14;100.00;100417.13;10381799;28;20379;-83
2022/10/24 09:49:53;;;;;;;;;;;15.00;99.90;;;13.11;100.00;100418.28;10350520;28;19999;-83
2022/10/24 09:55:04;;;;;;;;;;;14.90;99.90;;;13.08;100.00;100416.00;10405088;28;19968;-83
2022/10/24 10:00:21;;;;;;;;;;;14.90;99.90;;;13.18;100.00;100417.56;10364092;28;19934;-83
2022/10/24 10:05:24;;;;;;;;;;;14.90;99.90;;;13.17;100.00;100414.06;10352923;28;19981;-83
2022/10/24 10:10:30;;;;;;;;;;;15.00;99.90;;;13.25;100.00;100402.53;10376731;28;19941;-83
2022/10/24 10:15:44;;;;;;;;;;;15.00;99.90;;;13.32;100.00;100390.16;10359407;28;19934;-83
2022/10/24 10:21:01;;;;;;;;;;;15.10;99.90;;;13.38;100.00;100378.75;10413460;28;19958;-83
2022/10/24 10:26:04;;;;;;;;;;;15.20;99.90;;;13.44;100.00;100372.69;10421190;28;19988;-83
2022/10/24 10:31:09;;;;;;;;;;;15.30;99.90;;;13.51;100.00;100362.09;10405812;28;19940;-83
2022/10/24 10:36:19;;;;;;;;;;;15.40;99.90;;;13.61;100.00;100363.50;10385876;28;19933;-83
2022/10/24 10:41:41;;;;;;;;;;;15.50;99.90;;;13.74;100.00;100356.69;10389914;28;19933;-83
2022/10/24 10:47:16;;;;;;;;;;;15.70;99.90;;;13.85;100.00;100351.69;10388583;28;19933;-83
2022/10/24 10:52:30;;;;;;;;;;;15.70;99.90;;;13.97;100.00;100340.53;10404947;28;20020;-83
2022/10/24 10:57:39;;;;;;;;;;;15.90;99.90;;;14.05;100.00;100343.94;10384563;28;19940;-84
2022/10/24 11:03:06;;;;;;;;;;;15.90;99.90;;;14.07;99.65;100341.06;10404863;28;20353;-83
2022/10/24 11:08:29;;;;;;;;;;;16.00;99.90;;;14.10;99.47;100343.38;10422750;28;19934;-83
2022/10/24 11:13:53;;;;;;;;;;;16.00;99.90;;;14.17;99.33;100334.41;10377189;28;20021;-83
2022/10/24 11:19:03;;;;;;;;;;;16.10;99.90;;;14.23;98.79;100329.34;10361895;28;19934;-83
2022/10/24 11:24:20;;;;;;;;;;;16.10;99.90;;;14.30;98.34;100330.25;10381608;28;20008;-83
2022/10/24 11:29:32;;;;;;;;;;;16.20;99.90;;;14.32;97.81;100323.66;10403930;28;19933;-83
2022/10/24 11:34:49;;;;;;;;;;;16.30;99.90;;;14.36;97.10;100310.75;10383366;28;19934;-83
2022/10/24 11:39:59;;;;;;;;;;;16.30;99.90;;;14.52;97.29;100313.25;10379740;28;19940;-83
2022/10/24 11:45:12;;;;;;;;;;;16.40;99.90;;;14.65;96.76;100310.69;10379389;28;20419;-83
2022/10/24 11:50:37;;;;;;;;;;;16.50;99.90;;;14.81;96.30;100314.91;10363062;28;20353;-83
2022/10/24 11:55:46;;;;;;;;;;;16.70;99.90;;;14.95;95.27;100302.50;10389588;28;19941;-83
2022/10/24 12:01:22;;;;;;;;;;;16.90;99.90;;;15.07;94.37;100306.31;10359310;28;19934;-83
2022/10/24 12:07:01;;;;;;;;;;;16.90;99.90;;;15.07;93.12;100308.97;10392090;28;19941;-83
2022/10/24 12:12:22;;;;;;;;;;;16.90;99.90;;;15.10;92.56;100295.19;10366854;28;19933;-84
2022/10/24 12:17:31;;;;;;;;;;;16.90;99.90;;;15.10;91.79;100299.72;10362329;28;20431;-83
2022/10/24 12:22:36;;;;;;;;;;;16.90;99.90;;;15.09;91.13;100290.03;10367186;28;19934;-83
2022/10/24 12:27:40;;;;;;;;;;;16.90;99.90;;;15.11;91.19;100280.78;10386331;28;20377;-83
2022/10/24 12:32:46;;;;;;;;;;;16.90;99.90;;;15.19;91.37;100261.91;10363106;28;20352;-83
2022/10/24 12:37:50;;;;;;;;;;;17.00;99.90;;;15.26;91.14;100251.25;10366656;28;19937;-83
2022/10/24 12:42:57;;;;;;;;;;;17.10;99.90;;;15.42;90.91;100266.19;10305333;28;31119;-83
2022/10/24 12:48:12;;;;;;;;;;;17.30;99.90;;;15.47;90.59;100269.06;10321201;28;19937;-83
2022/10/24 12:53:17;;;;;;;;;;;17.30;99.90;;;15.40;89.79;100269.03;10321413;28;19934;-83
2022/10/24 12:58:34;;;;;;;;;;;17.30;99.90;;;15.32;89.27;100269.19;10342734;28;19976;-83
2022/10/24 13:03:49;;;;;;;;;;;17.30;99.90;;;15.19;89.55;100245.84;10308447;28;19938;-83
2022/10/24 13:09:05;;;;;;;;;;;17.20;99.90;;;15.18;89.79;100244.22;10377147;28;19940;-83
2022/10/24 13:14:45;;;;;;;;;;;17.10;99.90;;;15.22;90.01;100240.09;10359948;28;19940;-83
2022/10/24 13:20:20;;;;;;;;;;;17.10;99.90;;;15.24;89.99;100221.19;10359407;28;19933;-83
2022/10/24 13:25:34;;;;;;;;;;;17.20;99.90;;;15.27;89.73;100226.13;10346932;28;19934;-83
2022/10/24 13:30:36;;;;;;;;;;;17.20;99.90;;;15.27;89.54;100250.22;10343145;28;20017;-83
2022/10/24 13:35:39;;;;;;;;;;;17.20;99.90;;;15.27;89.95;100226.94;10343422;28;19941;-83
2022/10/24 13:40:43;;;;;;;;;;;17.20;99.90;;;15.32;89.90;100230.88;10337899;28;19934;-83
2022/10/24 13:45:52;;;;;;;;;;;17.20;99.90;;;15.36;89.93;100221.44;10324329;28;19933;-84
2022/10/24 13:51:11;;;;;;;;;;;17.20;99.90;;;15.33;89.69;100224.50;10319603;28;19934;-83
2022/10/24 13:56:15;;;;;;;;;;;17.20;99.90;;;15.27;89.54;100221.59;10336859;28;20020;-83
2022/10/24 14:01:26;;;;;;;;;;;17.20;99.90;;;15.25;89.06;100212.94;10357368;28;19934;-83
2022/10/24 14:06:32;;;;;;;;;;;17.20;99.90;;;15.19;89.51;100219.09;10319551;28;19934;-83
2022/10/24 14:11:44;;;;;;;;;;;17.10;99.90;;;15.15;89.71;100223.16;10302880;28;19941;-83
2022/10/24 14:17:03;;;;;;;;;;;17.10;99.90;;;15.14;89.86;100226.06;10339280;28;20286;-83
2022/10/24 14:22:17;;;;;;;;;;;17.10;99.90;;;15.09;89.61;100218.59;10364509;28;19934;-83
2022/10/24 14:27:20;;;;;;;;;;;17.00;99.90;;;15.03;89.68;100213.22;10365558;28;19941;-83
2022/10/24 14:32:24;;;;;;;;;;;16.90;99.90;;;15.01;90.15;100210.75;10347095;28;19969;-83
2022/10/24 14:37:33;;;;;;;;;;;16.90;99.90;;;14.98;90.19;100216.47;10348961;28;19934;-83
2022/10/24 14:42:37;;;;;;;;;;;16.90;99.90;;;14.97;90.21;100220.19;10348444;28;19933;-83
2022/10/24 14:47:49;;;;;;;;;;;16.90;99.90;;;14.96;90.24;100227.38;10367717;28;19934;-82
2022/10/24 14:52:52;;;;;;;;;;;16.80;99.90;;;14.92;90.29;100217.25;10309744;28;20402;-83
2022/10/24 14:57:55;;;;;;;;;;;16.80;99.90;;;14.89;90.52;100207.78;10323603;28;19941;-83
2022/10/24 15:03:00;;;;;;;;;;;16.80;99.90;;;14.89;90.85;100215.81;10378484;28;19937;-83
2022/10/24 15:08:09;;;;;;;;;;;16.80;99.90;;;14.86;90.77;100224.22;10363964;28;20054;-83
2022/10/24 15:13:24;;;;;;;;;;;16.80;99.90;;;14.83;90.86;100218.44;10365649;28;19976;-84
2022/10/24 15:18:40;;;;;;;;;;;16.80;99.90;;;14.77;90.91;100211.19;10346671;28;19941;-83
2022/10/24 15:23:52;;;;;;;;;;;16.70;99.90;;;14.74;91.15;100207.03;10345641;28;19934;-83
2022/10/24 15:29:12;;;;;;;;;;;16.70;99.90;;;14.71;91.41;100210.94;10346569;28;19934;-84
2022/10/24 15:34:22;;;;;;;;;;;16.70;99.90;;;14.68;91.46;100211.31;10363118;28;20431;-83
2022/10/24 15:39:25;;;;;;;;;;;16.60;99.90;;;14.65;91.33;100213.56;10346820;28;20420;-83
2022/10/24 15:44:29;;;;;;;;;;;16.60;99.90;;;14.60;91.68;100208.81;10345347;28;19934;-84
2022/10/24 15:49:33;;;;;;;;;;;16.50;99.90;;;14.58;91.91;100193.97;10326966;28;19934;-83
2022/10/24 15:54:36;;;;;;;;;;;16.50;99.90;;;14.54;91.77;100195.38;10328916;28;19934;-84
2022/10/24 15:59:39;;;;;;;;;;;16.50;99.90;;;14.50;92.06;100192.25;10354355;28;20468;-83
2022/10/24 16:04:43;;;;;;;;;;;16.50;99.90;;;14.50;92.07;100189.59;10336803;28;20357;-83
2022/10/24 16:09:46;;;;;;;;;;;16.40;99.90;;;14.47;92.22;100191.84;10312915;28;19934;-83
2022/10/24 16:14:48;;;;;;;;;;;16.40;99.90;;;14.46;92.36;100215.03;10313783;28;20294;-84
2022/10/24 16:19:51;;;;;;;;;;;16.40;99.90;;;14.43;92.45;100216.22;10345817;28;19934;-84
2022/10/24 16:24:54;;;;;;;;;;;16.30;99.90;;;14.41;92.49;100217.47;10305192;28;20345;-83
2022/10/24 16:29:57;;;;;;;;;;;16.30;99.90;;;14.36;92.75;100219.88;10327839;28;19934;-84
2022/10/24 16:35:00;;;;;;;;;;;16.20;99.90;;;14.34;92.79;100220.06;10345439;28;20406;-83
2022/10/24 16:40:03;;;;;;;;;;;16.20;99.90;;;14.34;92.77;100222.75;10354120;28;19955;-83
2022/10/24 16:45:06;;;;;;;;;;;16.20;99.90;;;14.32;92.97;100239.97;10359311;28;19985;-84
2022/10/24 16:50:16;;;;;;;;;;;16.20;99.90;;;14.31;92.93;100231.13;10360482;28;20028;-84
2022/10/24 16:55:20;;;;;;;;;;;16.20;99.90;;;14.31;92.94;100238.34;10345301;28;19988;-84
2022/10/24 17:00:24;;;;;;;;;;;16.20;99.90;;;14.27;93.10;100237.88;10333494;28;20425;-84
2022/10/24 17:05:27;;;;;;;;;;;16.20;99.90;;;14.25;93.24;100225.72;10344719;28;20024;-84
2022/10/24 17:10:30;;;;;;;;;;;16.20;99.90;;;14.23;93.34;100222.44;10342568;28;19941;-83
2022/10/24 17:15:34;;;;;;;;;;;16.20;99.90;;;14.20;93.88;100205.75;10342705;28;20032;-84
2022/10/24 17:20:36;;;;;;;;;;;16.10;99.90;;;14.19;93.74;100201.41;10361097;28;19937;-84
2022/10/24 17:25:39;;;;;;;;;;;16.10;99.90;;;14.16;93.83;100209.84;10343021;28;19933;-84
2022/10/24 17:30:43;;;;;;;;;;;16.10;99.90;;;14.10;93.78;100210.59;10359036;28;19940;-83
2022/10/24 17:35:51;;;;;;;;;;;16.00;99.90;;;14.05;93.74;100212.19;10343680;28;20397;-83
2022/10/24 17:40:55;;;;;;;;;;;15.90;99.90;;;13.97;93.85;100223.78;10343479;28;19980;-84
2022/10/24 17:45:58;;;;;;;;;;;15.90;99.90;;;13.86;93.64;100213.63;10331921;28;19934;-83
2022/10/24 17:51:01;;;;;;;;;;;15.80;99.90;;;13.81;94.21;100210.69;10337853;28;19934;-83
2022/10/24 17:56:04;;;;;;;;;;;15.70;99.90;;;13.70;93.80;100212.00;10343598;28;19934;-84
2022/10/24 18:01:07;;;;;;;;;;;15.60;99.90;;;13.55;94.00;100217.34;10333687;28;19933;-84
2022/10/24 18:06:11;;;;;;;;;;;15.50;99.90;;;13.44;94.18;100212.53;10364169;28;19938;-83
2022/10/24 18:11:14;;;;;;;;;;;15.30;99.90;;;13.31;94.25;100217.66;10357433;28;19934;-84
2022/10/24 18:16:18;;;;;;;;;;;15.20;99.90;;;13.13;94.29;100216.19;10341087;28;19966;-84
2022/10/24 18:21:23;;;;;;;;;;;15.10;99.90;;;13.04;94.75;100225.28;10333250;28;19934;-83
2022/10/24 18:26:26;;;;;;;;;;;14.90;99.90;;;13.00;95.21;100213.31;10343622;28;19940;-83
2022/10/24 18:31:30;;;;;;;;;;;14.90;99.90;;;13.00;95.65;100183.13;10347650;28;19988;-83
2022/10/24 18:36:33;;;;;;;;;;;14.90;99.90;;;13.00;95.98;100188.47;10348101;28;20024;-83
2022/10/24 18:41:48;;;;;;;;;;;14.90;99.90;;;12.99;96.15;100182.31;10347683;28;19941;-84
2022/10/24 18:46:53;;;;;;;;;;;14.90;99.90;;;12.95;96.25;100173.00;10349208;28;19965;-84
2022/10/24 18:52:08;;;;;;;;;;;14.80;99.90;;;12.92;96.27;100176.06;10346666;28;19933;-84
2022/10/24 18:57:30;;;;;;;;;;;14.80;99.90;;;12.89;96.36;100164.91;10356338;28;20412;-83
2022/10/24 19:02:53;;;;;;;;;;;14.70;99.90;;;12.80;96.73;100167.69;10351797;28;20298;-83
2022/10/24 19:07:56;;;;;;;;;;;14.70;99.90;;;12.78;97.12;100155.56;10344703;28;19940;-84
2022/10/24 19:12:59;;;;;;;;;;;14.70;99.90;;;12.77;97.19;100151.22;10334992;28;19980;-84
2022/10/24 19:18:03;;;;;;;;;;;14.70;99.90;;;12.69;96.80;100168.13;10365865;28;20032;-84
2022/10/24 19:23:06;;;;;;;;;;;14.60;99.90;;;12.62;97.08;100169.06;10339084;28;19938;-84
2022/10/24 19:28:15;;;;;;;;;;;14.50;99.90;;;12.53;97.11;100154.97;10322071;28;19933;-84
2022/10/24 19:33:19;;;;;;;;;;;14.40;99.90;;;12.42;96.83;100168.75;10338914;28;19934;-83
2022/10/24 19:38:23;;;;;;;;;;;14.30;99.90;;;12.30;97.06;100165.69;10350289;28;19941;-83
2022/10/24 19:43:29;;;;;;;;;;;14.20;99.90;;;12.22;97.27;100166.56;10341266;28;19938;-84
2022/10/24 19:48:33;;;;;;;;;;;14.10;99.90;;;12.16;97.40;100161.94;10346211;28;20004;-84
2022/10/24 19:53:38;;;;;;;;;;;14.00;99.90;;;12.14;97.49;100160.47;10348356;28;19934;-84
2022/10/24 19:58:41;;;;;;;;;;;14.00;99.90;;;12.13;97.64;100170.31;10359649;28;19934;-84
2022/10/24 20:03:46;;;;;;;;;;;14.00;99.90;;;12.11;97.71;100161.66;10324168;28;19934;-84
2022/10/24 20:08:49;;;;;;;;;;;14.00;99.90;;;12.13;98.39;100137.53;10336608;28;19934;-88
2022/10/24 20:13:52;;;;;;;;;;;14.00;99.90;;;12.22;98.92;100117.78;10338261;28;20016;-88
2022/10/24 20:18:54;;;;;;;;;;;14.10;99.90;;;12.26;99.03;100121.75;10332396;28;20397;-82
2022/10/24 20:23:57;;;;;;;;;;;14.10;99.90;;;12.29;99.29;100126.69;10333896;28;19985;-81
2022/10/24 20:29:00;;;;;;;;;;;14.20;99.90;;;12.36;99.39;100130.31;10336909;28;19938;-81
2022/10/24 20:34:08;;;;;;;;;;;14.20;99.90;;;12.42;99.96;100137.59;10337986;28;19941;-82
2022/10/24 20:39:13;;;;;;;;;;;14.30;99.90;;;12.48;100.00;100136.88;10348468;28;19941;-82
2022/10/24 20:44:16;;;;;;;;;;;14.40;99.90;;;12.56;100.00;100126.13;10343359;28;19977;-84
2022/10/24 20:49:18;;;;;;;;;;;14.40;99.90;;;12.64;100.00;100127.03;10340874;28;19941;-84
2022/10/24 20:54:21;;;;;;;;;;;14.50;99.90;;;12.69;100.00;100124.66;10326052;28;20421;-82
2022/10/24 20:59:24;;;;;;;;;;;14.60;99.90;;;12.77;100.00;100135.22;10331777;28;19941;-82
2022/10/24 21:04:27;;;;;;;;;;;14.60;99.90;;;12.81;100.00;100136.50;10333979;28;20024;-82
2022/10/24 21:09:31;;;;;;;;;;;14.60;99.90;;;12.86;100.00;100134.94;10330588;28;20356;-83
2022/10/24 21:14:34;;;;;;;;;;;14.70;99.90;;;12.90;100.00;100130.09;10355622;28;19940;-83
2022/10/24 21:19:37;;;;;;;;;;;14.80;99.90;;;12.95;100.00;100126.84;10354025;28;20014;-83
2022/10/24 21:24:40;;;;;;;;;;;14.80;99.90;;;12.97;100.00;100135.50;10355930;28;20012;-82
2022/10/24 21:29:43;;;;;;;;;;;14.90;99.90;;;12.97;100.00;100144.34;10347955;28;19934;-83
2022/10/24 21:34:45;;;;;;;;;;;14.80;99.90;;;12.97;100.00;100147.00;10347148;28;20314;-82
2022/10/24 21:39:48;;;;;;;;;;;14.90;99.90;;;12.96;100.00;100148.03;10344778;28;19934;-83
2022/10/24 21:44:51;;;;;;;;;;;14.80;99.90;;;12.99;100.00;100144.97;10327223;28;20001;-82
2022/10/24 21:49:54;;;;;;;;;;;14.80;99.90;;;13.02;100.00;100143.78;10345100;28;19933;-83
2022/10/24 21:54:57;;;;;;;;;;;14.80;99.90;;;13.06;100.00;100140.53;10354240;28;20310;-83
2022/10/24 21:59:59;;;;;;;;;;;14.90;99.90;;;13.12;100.00;100141.66;10346059;28;19933;-83
2022/10/24 22:05:03;;;;;;;;;;;14.90;99.90;;;13.19;100.00;100139.06;10309314;28;19935;-83
2022/10/24 22:10:06;;;;;;;;;;;15.00;99.90;;;13.27;100.00;100144.34;10359467;28;20020;-82
2022/10/24 22:15:09;;;;;;;;;;;15.10;99.90;;;13.31;100.00;100149.13;10357302;28;19934;-82
2022/10/24 22:20:12;;;;;;;;;;;15.20;99.90;;;13.33;100.00;100159.59;10348443;28;19941;-82
2022/10/24 22:25:15;;;;;;;;;;;15.20;99.90;;;13.30;100.00;100160.78;10338140;28;19966;-82
2022/10/24 22:30:18;;;;;;;;;;;15.20;99.90;;;13.30;100.00;100157.28;10339571;28;19938;-83
2022/10/24 22:35:21;;;;;;;;;;;15.10;99.90;;;13.30;100.00;100163.47;10341028;28;19934;-82
2022/10/24 22:40:26;;;;;;;;;;;15.20;99.90;;;13.34;100.00;100159.41;10346699;28;19933;-83
2022/10/24 22:45:29;;;;;;;;;;;15.20;99.90;;;13.34;100.00;100159.41;10338972;28;19942;-82
2022/10/24 22:50:44;;;;;;;;;;;15.20;99.90;;;13.35;100.00;100165.56;10324011;28;20025;-83